sensor_id;sensor_type;location;lat;lon;timestamp;temperature;humidity
3298;DHT22;1661;53.572;10.174;2022-09-06T00:01:22;18.00;62.70
3298;DHT22;1661;53.572;10.174;2022-09-06T00:03:49;18.00;62.80
3298;DHT22;1661;53.572;10.174;2022-09-06T00:06:18;18.00;62.80
3298;DHT22;1661;53.572;10.174;2022-09-06T00:08:46;17.90;63.10
3298;DHT22;1661;53.572;10.174;2022-09-06T00:11:14;17.90;63.10
3298;DHT22;1661;53.572;10.174;2022-09-06T00:13:41;17.80;63.30
3298;DHT22;1661;53.572;10.174;2022-09-06T00:16:10;17.80;63.40
3298;DHT22;1661;53.572;10.174;2022-09-06T00:18:37;17.70;63.60
3298;DHT22;1661;53.572;10.174;2022-09-06T00:21:13;17.70;63.50
3298;DHT22;1661;53.572;10.174;2022-09-06T00:23:41;17.70;63.60
3298;DHT22;1661;53.572;10.174;2022-09-06T00:26:08;17.70;63.50
3298;DHT22;1661;53.572;10.174;2022-09-06T00:28:35;17.70;63.60
3298;DHT22;1661;53.572;10.174;2022-09-06T00:31:08;17.70;63.60
3298;DHT22;1661;53.572;10.174;2022-09-06T00:33:35;17.70;63.60
3298;DHT22;1661;53.572;10.174;2022-09-06T00:36:02;17.70;63.50
3298;DHT22;1661;53.572;10.174;2022-09-06T00:38:28;17.60;63.70
3298;DHT22;1661;53.572;10.174;2022-09-06T00:40:57;17.60;63.90
3298;DHT22;1661;53.572;10.174;2022-09-06T00:43:23;17.60;63.60
3298;DHT22;1661;53.572;10.174;2022-09-06T00:45:51;17.60;63.80
3298;DHT22;1661;53.572;10.174;2022-09-06T00:48:20;17.60;63.80
3298;DHT22;1661;53.572;10.174;2022-09-06T00:51:03;17.60;63.60
3298;DHT22;1661;53.572;10.174;2022-09-06T00:53:31;17.50;63.60
3298;DHT22;1661;53.572;10.174;2022-09-06T00:55:59;17.50;63.70
3298;DHT22;1661;53.572;10.174;2022-09-06T00:58:27;17.40;63.80
3298;DHT22;1661;53.572;10.174;2022-09-06T01:00:53;17.50;63.70
3298;DHT22;1661;53.572;10.174;2022-09-06T01:03:21;17.40;63.70
3298;DHT22;1661;53.572;10.174;2022-09-06T01:05:55;17.40;63.60
3298;DHT22;1661;53.572;10.174;2022-09-06T01:08:32;17.50;63.50
3298;DHT22;1661;53.572;10.174;2022-09-06T01:11:22;17.50;63.40
3298;DHT22;1661;53.572;10.174;2022-09-06T01:13:59;17.50;63.30
3298;DHT22;1661;53.572;10.174;2022-09-06T01:16:33;17.50;63.30
3298;DHT22;1661;53.572;10.174;2022-09-06T01:21:58;17.50;63.20
3298;DHT22;1661;53.572;10.174;2022-09-06T01:24:59;17.50;63.00
3298;DHT22;1661;53.572;10.174;2022-09-06T01:28:07;17.40;63.00
3298;DHT22;1661;53.572;10.174;2022-09-06T01:30:41;17.40;63.10
3298;DHT22;1661;53.572;10.174;2022-09-06T01:33:15;17.40;63.30
3298;DHT22;1661;53.572;10.174;2022-09-06T01:35:45;17.40;63.10
3298;DHT22;1661;53.572;10.174;2022-09-06T01:38:13;17.40;62.90
3298;DHT22;1661;53.572;10.174;2022-09-06T01:40:40;17.40;63.00
3298;DHT22;1661;53.572;10.174;2022-09-06T01:43:10;17.40;63.00
3298;DHT22;1661;53.572;10.174;2022-09-06T01:45:48;17.40;62.80
3298;DHT22;1661;53.572;10.174;2022-09-06T01:48:22;17.40;62.80
3298;DHT22;1661;53.572;10.174;2022-09-06T01:50:57;17.40;62.80
3298;DHT22;1661;53.572;10.174;2022-09-06T01:53:40;17.40;62.70
3298;DHT22;1661;53.572;10.174;2022-09-06T01:56:21;17.40;62.50
3298;DHT22;1661;53.572;10.174;2022-09-06T02:01:48;17.30;62.50
3298;DHT22;1661;53.572;10.174;2022-09-06T02:04:20;17.10;62.60
3298;DHT22;1661;53.572;10.174;2022-09-06T02:06:51;17.10;62.60
3298;DHT22;1661;53.572;10.174;2022-09-06T02:09:22;17.10;62.60
3298;DHT22;1661;53.572;10.174;2022-09-06T02:11:53;17.10;62.50
3298;DHT22;1661;53.572;10.174;2022-09-06T02:14:24;17.10;62.50
3298;DHT22;1661;53.572;10.174;2022-09-06T02:16:53;17.00;62.40
3298;DHT22;1661;53.572;10.174;2022-09-06T02:19:26;17.00;62.30
3298;DHT22;1661;53.572;10.174;2022-09-06T02:21:57;17.10;62.10
3298;DHT22;1661;53.572;10.174;2022-09-06T02:24:29;17.00;61.90
3298;DHT22;1661;53.572;10.174;2022-09-06T02:26:57;17.10;61.90
3298;DHT22;1661;53.572;10.174;2022-09-06T02:29:25;17.10;61.70
3298;DHT22;1661;53.572;10.174;2022-09-06T02:31:55;17.10;61.60
3298;DHT22;1661;53.572;10.174;2022-09-06T02:34:23;17.00;61.60
3298;DHT22;1661;53.572;10.174;2022-09-06T02:36:50;17.00;61.60
3298;DHT22;1661;53.572;10.174;2022-09-06T02:39:17;17.00;61.40
3298;DHT22;1661;53.572;10.174;2022-09-06T02:41:45;17.10;61.10
3298;DHT22;1661;53.572;10.174;2022-09-06T02:44:12;17.10;60.70
3298;DHT22;1661;53.572;10.174;2022-09-06T02:46:40;17.10;60.60
3298;DHT22;1661;53.572;10.174;2022-09-06T02:49:07;17.10;60.50
3298;DHT22;1661;53.572;10.174;2022-09-06T02:51:35;17.10;60.50
3298;DHT22;1661;53.572;10.174;2022-09-06T02:54:03;17.10;60.30
3298;DHT22;1661;53.572;10.174;2022-09-06T02:56:30;17.00;60.20
3298;DHT22;1661;53.572;10.174;2022-09-06T02:58:58;17.00;60.20
3298;DHT22;1661;53.572;10.174;2022-09-06T03:01:25;17.00;60.30
3298;DHT22;1661;53.572;10.174;2022-09-06T03:03:53;16.90;60.20
3298;DHT22;1661;53.572;10.174;2022-09-06T03:06:20;16.90;60.20
3298;DHT22;1661;53.572;10.174;2022-09-06T03:08:47;16.90;60.10
3298;DHT22;1661;53.572;10.174;2022-09-06T03:11:14;16.90;60.00
3298;DHT22;1661;53.572;10.174;2022-09-06T03:13:40;16.90;59.70
3298;DHT22;1661;53.572;10.174;2022-09-06T03:16:07;16.90;59.70
3298;DHT22;1661;53.572;10.174;2022-09-06T03:18:34;17.00;59.50
3298;DHT22;1661;53.572;10.174;2022-09-06T03:21:02;17.00;59.40
3298;DHT22;1661;53.572;10.174;2022-09-06T03:23:29;17.00;59.20
3298;DHT22;1661;53.572;10.174;2022-09-06T03:25:56;17.10;58.80
3298;DHT22;1661;53.572;10.174;2022-09-06T03:28:23;17.00;58.60
3298;DHT22;1661;53.572;10.174;2022-09-06T03:30:50;17.00;58.70
3298;DHT22;1661;53.572;10.174;2022-09-06T03:33:18;17.00;58.70
3298;DHT22;1661;53.572;10.174;2022-09-06T03:35:47;16.90;58.50
3298;DHT22;1661;53.572;10.174;2022-09-06T03:38:16;16.90;58.60
3298;DHT22;1661;53.572;10.174;2022-09-06T03:40:44;16.90;58.50
3298;DHT22;1661;53.572;10.174;2022-09-06T03:43:10;16.90;58.20
3298;DHT22;1661;53.572;10.174;2022-09-06T03:45:37;16.90;58.00
3298;DHT22;1661;53.572;10.174;2022-09-06T03:48:04;16.90;58.00
3298;DHT22;1661;53.572;10.174;2022-09-06T03:50:30;16.80;57.80
3298;DHT22;1661;53.572;10.174;2022-09-06T03:52:57;16.80;57.70
3298;DHT22;1661;53.572;10.174;2022-09-06T03:55:25;16.90;57.70
3298;DHT22;1661;53.572;10.174;2022-09-06T03:57:52;16.90;57.40
3298;DHT22;1661;53.572;10.174;2022-09-06T04:00:18;16.90;57.20
3298;DHT22;1661;53.572;10.174;2022-09-06T04:02:45;16.90;57.10
3298;DHT22;1661;53.572;10.174;2022-09-06T04:05:12;16.90;57.20
3298;DHT22;1661;53.572;10.174;2022-09-06T04:07:41;16.90;57.20
3298;DHT22;1661;53.572;10.174;2022-09-06T04:10:08;16.90;56.80
3298;DHT22;1661;53.572;10.174;2022-09-06T04:12:36;16.90;56.70
3298;DHT22;1661;53.572;10.174;2022-09-06T04:15:04;16.90;56.70
3298;DHT22;1661;53.572;10.174;2022-09-06T04:17:31;16.90;56.60
3298;DHT22;1661;53.572;10.174;2022-09-06T04:19:58;16.90;56.30
3298;DHT22;1661;53.572;10.174;2022-09-06T04:22:24;16.80;56.50
3298;DHT22;1661;53.572;10.174;2022-09-06T04:24:51;16.80;56.60
3298;DHT22;1661;53.572;10.174;2022-09-06T04:27:18;16.80;56.70
3298;DHT22;1661;53.572;10.174;2022-09-06T04:29:46;16.80;56.50
3298;DHT22;1661;53.572;10.174;2022-09-06T04:32:12;16.80;56.70
3298;DHT22;1661;53.572;10.174;2022-09-06T04:34:39;16.80;56.60
3298;DHT22;1661;53.572;10.174;2022-09-06T04:37:06;16.80;56.40
3298;DHT22;1661;53.572;10.174;2022-09-06T04:39:33;16.80;56.40
3298;DHT22;1661;53.572;10.174;2022-09-06T04:41:59;16.80;56.50
3298;DHT22;1661;53.572;10.174;2022-09-06T04:44:26;16.80;56.60
3298;DHT22;1661;53.572;10.174;2022-09-06T04:47:03;16.70;56.40
3298;DHT22;1661;53.572;10.174;2022-09-06T04:49:30;16.70;56.80
3298;DHT22;1661;53.572;10.174;2022-09-06T04:51:57;16.60;56.50
3298;DHT22;1661;53.572;10.174;2022-09-06T04:54:24;16.60;56.70
3298;DHT22;1661;53.572;10.174;2022-09-06T04:56:50;16.60;56.80
3298;DHT22;1661;53.572;10.174;2022-09-06T04:59:17;16.60;57.10
3298;DHT22;1661;53.572;10.174;2022-09-06T05:01:44;16.50;56.80
3298;DHT22;1661;53.572;10.174;2022-09-06T05:04:12;16.50;56.70
3298;DHT22;1661;53.572;10.174;2022-09-06T05:06:38;16.50;56.80
3298;DHT22;1661;53.572;10.174;2022-09-06T05:09:07;16.50;57.00
3298;DHT22;1661;53.572;10.174;2022-09-06T05:11:33;16.50;57.00
3298;DHT22;1661;53.572;10.174;2022-09-06T05:14:00;16.50;56.70
3298;DHT22;1661;53.572;10.174;2022-09-06T05:16:27;16.50;57.10
3298;DHT22;1661;53.572;10.174;2022-09-06T05:18:53;16.40;56.70
3298;DHT22;1661;53.572;10.174;2022-09-06T05:21:21;16.40;56.90
3298;DHT22;1661;53.572;10.174;2022-09-06T05:23:48;16.40;56.90
3298;DHT22;1661;53.572;10.174;2022-09-06T05:26:15;16.40;57.00
3298;DHT22;1661;53.572;10.174;2022-09-06T05:28:41;16.40;57.10
3298;DHT22;1661;53.572;10.174;2022-09-06T05:31:09;16.50;57.10
3298;DHT22;1661;53.572;10.174;2022-09-06T05:33:37;16.50;56.60
3298;DHT22;1661;53.572;10.174;2022-09-06T05:36:04;16.60;56.80
3298;DHT22;1661;53.572;10.174;2022-09-06T05:38:32;16.50;56.40
3298;DHT22;1661;53.572;10.174;2022-09-06T05:40:59;16.60;56.70
3298;DHT22;1661;53.572;10.174;2022-09-06T05:43:26;16.60;56.40
3298;DHT22;1661;53.572;10.174;2022-09-06T05:45:52;16.60;56.40
3298;DHT22;1661;53.572;10.174;2022-09-06T05:48:19;16.60;56.30
3298;DHT22;1661;53.572;10.174;2022-09-06T05:50:46;16.60;56.40
3298;DHT22;1661;53.572;10.174;2022-09-06T05:53:12;16.60;56.60
3298;DHT22;1661;53.572;10.174;2022-09-06T05:55:40;16.60;56.70
3298;DHT22;1661;53.572;10.174;2022-09-06T05:58:07;16.70;56.40
3298;DHT22;1661;53.572;10.174;2022-09-06T06:00:34;16.70;56.30
3298;DHT22;1661;53.572;10.174;2022-09-06T06:03:00;16.70;56.30
3298;DHT22;1661;53.572;10.174;2022-09-06T06:05:27;16.60;56.50
3298;DHT22;1661;53.572;10.174;2022-09-06T06:07:54;16.70;56.60
3298;DHT22;1661;53.572;10.174;2022-09-06T06:10:22;16.60;56.60
3298;DHT22;1661;53.572;10.174;2022-09-06T06:12:50;16.70;56.80
3298;DHT22;1661;53.572;10.174;2022-09-06T06:15:17;16.70;56.50
3298;DHT22;1661;53.572;10.174;2022-09-06T06:17:43;16.80;56.40
3298;DHT22;1661;53.572;10.174;2022-09-06T06:20:10;16.80;56.30
3298;DHT22;1661;53.572;10.174;2022-09-06T06:22:37;16.90;56.50
3298;DHT22;1661;53.572;10.174;2022-09-06T06:25:04;16.90;56.40
3298;DHT22;1661;53.572;10.174;2022-09-06T06:27:31;17.00;56.10
3298;DHT22;1661;53.572;10.174;2022-09-06T06:30:00;17.00;56.20
3298;DHT22;1661;53.572;10.174;2022-09-06T06:32:27;17.10;55.90
3298;DHT22;1661;53.572;10.174;2022-09-06T06:34:54;17.20;56.00
3298;DHT22;1661;53.572;10.174;2022-09-06T06:37:20;17.30;55.70
3298;DHT22;1661;53.572;10.174;2022-09-06T06:39:47;17.40;55.40
3298;DHT22;1661;53.572;10.174;2022-09-06T06:42:13;17.40;55.50
3298;DHT22;1661;53.572;10.174;2022-09-06T06:44:40;17.30;55.30
3298;DHT22;1661;53.572;10.174;2022-09-06T06:47:08;17.30;55.50
3298;DHT22;1661;53.572;10.174;2022-09-06T06:49:35;17.20;55.60
3298;DHT22;1661;53.572;10.174;2022-09-06T06:52:02;17.20;55.80
3298;DHT22;1661;53.572;10.174;2022-09-06T06:54:29;17.30;56.40
3298;DHT22;1661;53.572;10.174;2022-09-06T06:56:55;17.30;55.90
3298;DHT22;1661;53.572;10.174;2022-09-06T06:59:22;17.30;56.10
3298;DHT22;1661;53.572;10.174;2022-09-06T07:01:48;17.30;55.70
3298;DHT22;1661;53.572;10.174;2022-09-06T07:04:16;17.30;56.00
3298;DHT22;1661;53.572;10.174;2022-09-06T07:06:48;17.30;56.00
3298;DHT22;1661;53.572;10.174;2022-09-06T07:09:16;17.30;56.30
3298;DHT22;1661;53.572;10.174;2022-09-06T07:11:43;17.40;56.50
3298;DHT22;1661;53.572;10.174;2022-09-06T07:14:10;17.40;56.80
3298;DHT22;1661;53.572;10.174;2022-09-06T07:16:36;17.60;56.50
3298;DHT22;1661;53.572;10.174;2022-09-06T07:19:03;17.70;56.20
3298;DHT22;1661;53.572;10.174;2022-09-06T07:21:31;17.70;56.40
3298;DHT22;1661;53.572;10.174;2022-09-06T07:23:58;17.70;56.20
3298;DHT22;1661;53.572;10.174;2022-09-06T07:26:26;17.70;56.00
3298;DHT22;1661;53.572;10.174;2022-09-06T07:28:53;17.70;56.00
3298;DHT22;1661;53.572;10.174;2022-09-06T07:31:21;17.80;56.20
3298;DHT22;1661;53.572;10.174;2022-09-06T07:33:48;17.80;56.40
3298;DHT22;1661;53.572;10.174;2022-09-06T07:36:15;17.90;56.50
3298;DHT22;1661;53.572;10.174;2022-09-06T07:38:46;17.90;56.40
3298;DHT22;1661;53.572;10.174;2022-09-06T07:41:13;17.90;56.40
3298;DHT22;1661;53.572;10.174;2022-09-06T07:43:41;17.90;56.00
3298;DHT22;1661;53.572;10.174;2022-09-06T07:46:09;18.00;56.40
3298;DHT22;1661;53.572;10.174;2022-09-06T07:48:38;18.00;56.40
3298;DHT22;1661;53.572;10.174;2022-09-06T07:51:07;18.00;56.30
3298;DHT22;1661;53.572;10.174;2022-09-06T07:53:34;18.00;56.40
3298;DHT22;1661;53.572;10.174;2022-09-06T07:56:04;18.00;56.70
3298;DHT22;1661;53.572;10.174;2022-09-06T07:58:32;18.10;56.70
3298;DHT22;1661;53.572;10.174;2022-09-06T08:01:18;18.10;56.60
3298;DHT22;1661;53.572;10.174;2022-09-06T08:03:50;18.20;56.50
3298;DHT22;1661;53.572;10.174;2022-09-06T08:06:17;18.30;56.50
3298;DHT22;1661;53.572;10.174;2022-09-06T08:08:43;18.30;56.70
3298;DHT22;1661;53.572;10.174;2022-09-06T08:11:11;18.30;56.40
3298;DHT22;1661;53.572;10.174;2022-09-06T08:13:38;18.30;56.70
3298;DHT22;1661;53.572;10.174;2022-09-06T08:16:07;18.40;56.40
3298;DHT22;1661;53.572;10.174;2022-09-06T08:18:34;18.40;56.70
3298;DHT22;1661;53.572;10.174;2022-09-06T08:21:05;18.50;56.70
3298;DHT22;1661;53.572;10.174;2022-09-06T08:23:32;18.60;56.90
3298;DHT22;1661;53.572;10.174;2022-09-06T08:26:00;18.70;56.40
3298;DHT22;1661;53.572;10.174;2022-09-06T08:28:28;18.70;56.30
3298;DHT22;1661;53.572;10.174;2022-09-06T08:30:55;18.70;56.50
3298;DHT22;1661;53.572;10.174;2022-09-06T08:33:29;18.90;56.80
3298;DHT22;1661;53.572;10.174;2022-09-06T08:35:57;19.00;56.10
3298;DHT22;1661;53.572;10.174;2022-09-06T08:38:24;19.10;55.80
3298;DHT22;1661;53.572;10.174;2022-09-06T08:40:51;19.30;56.10
3298;DHT22;1661;53.572;10.174;2022-09-06T08:43:20;19.40;55.70
3298;DHT22;1661;53.572;10.174;2022-09-06T08:45:53;19.50;54.90
3298;DHT22;1661;53.572;10.174;2022-09-06T08:48:23;19.60;55.30
3298;DHT22;1661;53.572;10.174;2022-09-06T08:50:54;19.70;54.80
3298;DHT22;1661;53.572;10.174;2022-09-06T08:53:23;19.70;54.70
3298;DHT22;1661;53.572;10.174;2022-09-06T08:55:54;19.70;54.80
3298;DHT22;1661;53.572;10.174;2022-09-06T08:58:37;19.80;54.90
3298;DHT22;1661;53.572;10.174;2022-09-06T09:01:11;19.80;54.90
3298;DHT22;1661;53.572;10.174;2022-09-06T09:03:41;19.90;54.70
3298;DHT22;1661;53.572;10.174;2022-09-06T09:06:09;19.90;55.00
3298;DHT22;1661;53.572;10.174;2022-09-06T09:08:41;19.80;55.00
3298;DHT22;1661;53.572;10.174;2022-09-06T09:11:16;19.80;55.10
3298;DHT22;1661;53.572;10.174;2022-09-06T09:13:50;19.80;55.30
3298;DHT22;1661;53.572;10.174;2022-09-06T09:16:20;19.80;55.10
3298;DHT22;1661;53.572;10.174;2022-09-06T09:18:50;19.80;55.10
3298;DHT22;1661;53.572;10.174;2022-09-06T09:21:19;19.80;55.50
3298;DHT22;1661;53.572;10.174;2022-09-06T09:23:50;19.90;55.50
3298;DHT22;1661;53.572;10.174;2022-09-06T09:26:17;19.70;55.50
3298;DHT22;1661;53.572;10.174;2022-09-06T09:29:00;19.60;55.90
3298;DHT22;1661;53.572;10.174;2022-09-06T09:31:35;19.60;56.20
3298;DHT22;1661;53.572;10.174;2022-09-06T09:34:02;19.60;56.20
3298;DHT22;1661;53.572;10.174;2022-09-06T09:36:30;19.50;56.40
3298;DHT22;1661;53.572;10.174;2022-09-06T09:38:58;19.50;56.70
3298;DHT22;1661;53.572;10.174;2022-09-06T09:41:28;19.50;56.80
3298;DHT22;1661;53.572;10.174;2022-09-06T09:43:57;19.70;57.30
3298;DHT22;1661;53.572;10.174;2022-09-06T09:46:28;19.80;56.60
3298;DHT22;1661;53.572;10.174;2022-09-06T09:49:07;19.90;56.40
3298;DHT22;1661;53.572;10.174;2022-09-06T09:51:35;19.90;55.70
3298;DHT22;1661;53.572;10.174;2022-09-06T09:54:04;19.90;55.90
3298;DHT22;1661;53.572;10.174;2022-09-06T09:56:49;19.80;55.90
3298;DHT22;1661;53.572;10.174;2022-09-06T09:59:23;19.80;55.90
3298;DHT22;1661;53.572;10.174;2022-09-06T10:01:53;19.80;56.10
3298;DHT22;1661;53.572;10.174;2022-09-06T10:04:28;19.90;56.40
3298;DHT22;1661;53.572;10.174;2022-09-06T10:07:07;19.90;56.10
3298;DHT22;1661;53.572;10.174;2022-09-06T10:09:36;19.90;56.50
3298;DHT22;1661;53.572;10.174;2022-09-06T10:12:04;20.00;56.10
3298;DHT22;1661;53.572;10.174;2022-09-06T10:14:32;20.00;56.20
3298;DHT22;1661;53.572;10.174;2022-09-06T10:17:04;20.10;55.80
3298;DHT22;1661;53.572;10.174;2022-09-06T10:19:41;20.00;55.60
3298;DHT22;1661;53.572;10.174;2022-09-06T10:22:31;20.00;56.10
3298;DHT22;1661;53.572;10.174;2022-09-06T10:25:35;20.00;55.90
3298;DHT22;1661;53.572;10.174;2022-09-06T10:28:22;19.90;56.10
3298;DHT22;1661;53.572;10.174;2022-09-06T10:31:10;20.00;56.70
3298;DHT22;1661;53.572;10.174;2022-09-06T10:33:52;20.10;56.90
3298;DHT22;1661;53.572;10.174;2022-09-06T10:36:28;20.10;56.50
3298;DHT22;1661;53.572;10.174;2022-09-06T10:38:59;20.10;56.10
3298;DHT22;1661;53.572;10.174;2022-09-06T10:41:38;20.20;56.20
3298;DHT22;1661;53.572;10.174;2022-09-06T10:44:17;20.20;56.20
3298;DHT22;1661;53.572;10.174;2022-09-06T10:46:51;20.10;56.10
3298;DHT22;1661;53.572;10.174;2022-09-06T10:49:20;20.10;56.00
3298;DHT22;1661;53.572;10.174;2022-09-06T10:51:52;20.10;56.70
3298;DHT22;1661;53.572;10.174;2022-09-06T10:54:21;20.10;56.00
3298;DHT22;1661;53.572;10.174;2022-09-06T10:56:52;20.10;55.70
3298;DHT22;1661;53.572;10.174;2022-09-06T10:59:23;20.10;56.10
3298;DHT22;1661;53.572;10.174;2022-09-06T11:02:00;20.00;55.40
3298;DHT22;1661;53.572;10.174;2022-09-06T11:04:30;20.00;55.90
3298;DHT22;1661;53.572;10.174;2022-09-06T11:07:05;20.10;55.70
3298;DHT22;1661;53.572;10.174;2022-09-06T11:09:37;20.20;55.80
3298;DHT22;1661;53.572;10.174;2022-09-06T11:12:08;20.20;55.40
3298;DHT22;1661;53.572;10.174;2022-09-06T11:14:37;20.30;54.90
3298;DHT22;1661;53.572;10.174;2022-09-06T11:17:07;20.20;54.90
3298;DHT22;1661;53.572;10.174;2022-09-06T11:19:40;20.30;55.10
3298;DHT22;1661;53.572;10.174;2022-09-06T11:22:30;20.40;55.30
3298;DHT22;1661;53.572;10.174;2022-09-06T11:25:22;20.40;55.10
3298;DHT22;1661;53.572;10.174;2022-09-06T11:27:53;20.50;55.10
3298;DHT22;1661;53.572;10.174;2022-09-06T11:30:21;20.50;55.00
3298;DHT22;1661;53.572;10.174;2022-09-06T11:32:51;20.50;54.50
3298;DHT22;1661;53.572;10.174;2022-09-06T11:35:28;20.50;55.00
3298;DHT22;1661;53.572;10.174;2022-09-06T11:38:00;20.50;54.70
3298;DHT22;1661;53.572;10.174;2022-09-06T11:40:33;20.60;55.00
3298;DHT22;1661;53.572;10.174;2022-09-06T11:43:14;20.70;55.10
3298;DHT22;1661;53.572;10.174;2022-09-06T11:45:44;20.80;54.70
3298;DHT22;1661;53.572;10.174;2022-09-06T11:48:58;20.90;54.00
3298;DHT22;1661;53.572;10.174;2022-09-06T11:51:32;20.90;54.00
3298;DHT22;1661;53.572;10.174;2022-09-06T11:54:04;21.00;54.10
3298;DHT22;1661;53.572;10.174;2022-09-06T11:56:39;21.00;53.90
3298;DHT22;1661;53.572;10.174;2022-09-06T11:59:17;21.00;54.20
3298;DHT22;1661;53.572;10.174;2022-09-06T12:01:59;21.10;54.80
3298;DHT22;1661;53.572;10.174;2022-09-06T12:05:11;21.20;54.10
3298;DHT22;1661;53.572;10.174;2022-09-06T12:10:56;21.20;54.60
3298;DHT22;1661;53.572;10.174;2022-09-06T12:13:37;21.30;53.70
3298;DHT22;1661;53.572;10.174;2022-09-06T12:16:05;21.30;53.80
3298;DHT22;1661;53.572;10.174;2022-09-06T12:18:52;21.40;54.30
3298;DHT22;1661;53.572;10.174;2022-09-06T12:21:43;21.50;53.80
3298;DHT22;1661;53.572;10.174;2022-09-06T12:27:18;21.60;53.40
3298;DHT22;1661;53.572;10.174;2022-09-06T12:29:54;21.50;54.00
3298;DHT22;1661;53.572;10.174;2022-09-06T12:32:26;21.50;53.90
3298;DHT22;1661;53.572;10.174;2022-09-06T12:34:53;21.50;53.80
3298;DHT22;1661;53.572;10.174;2022-09-06T12:37:32;21.40;53.50
3298;DHT22;1661;53.572;10.174;2022-09-06T12:40:00;21.40;54.10
3298;DHT22;1661;53.572;10.174;2022-09-06T12:42:29;21.40;53.60
3298;DHT22;1661;53.572;10.174;2022-09-06T12:44:56;21.30;53.50
3298;DHT22;1661;53.572;10.174;2022-09-06T12:47:26;21.30;53.80
3298;DHT22;1661;53.572;10.174;2022-09-06T12:50:09;21.30;53.90
3298;DHT22;1661;53.572;10.174;2022-09-06T12:52:47;21.30;53.80
3298;DHT22;1661;53.572;10.174;2022-09-06T12:55:18;21.30;54.20
3298;DHT22;1661;53.572;10.174;2022-09-06T12:57:52;21.30;54.20
3298;DHT22;1661;53.572;10.174;2022-09-06T13:00:20;21.40;54.50
3298;DHT22;1661;53.572;10.174;2022-09-06T13:02:54;21.40;53.80
3298;DHT22;1661;53.572;10.174;2022-09-06T13:05:23;21.40;54.10
3298;DHT22;1661;53.572;10.174;2022-09-06T13:07:52;21.40;54.10
3298;DHT22;1661;53.572;10.174;2022-09-06T13:10:22;21.40;54.00
3298;DHT22;1661;53.572;10.174;2022-09-06T13:12:52;21.40;54.10
3298;DHT22;1661;53.572;10.174;2022-09-06T13:15:22;21.40;54.30
3298;DHT22;1661;53.572;10.174;2022-09-06T13:17:50;21.50;54.30
3298;DHT22;1661;53.572;10.174;2022-09-06T13:20:28;21.50;54.70
3298;DHT22;1661;53.572;10.174;2022-09-06T13:23:06;21.50;54.10
3298;DHT22;1661;53.572;10.174;2022-09-06T13:25:37;21.60;53.90
3298;DHT22;1661;53.572;10.174;2022-09-06T13:28:22;21.70;53.80
3298;DHT22;1661;53.572;10.174;2022-09-06T13:31:01;21.60;53.30
3298;DHT22;1661;53.572;10.174;2022-09-06T13:33:29;21.60;53.80
3298;DHT22;1661;53.572;10.174;2022-09-06T13:36:17;21.60;53.30
3298;DHT22;1661;53.572;10.174;2022-09-06T13:38:45;21.60;54.00
3298;DHT22;1661;53.572;10.174;2022-09-06T13:41:45;21.70;54.10
3298;DHT22;1661;53.572;10.174;2022-09-06T13:44:27;21.80;53.40
3298;DHT22;1661;53.572;10.174;2022-09-06T13:46:54;21.80;53.50
3298;DHT22;1661;53.572;10.174;2022-09-06T13:49:21;21.80;54.10
3298;DHT22;1661;53.572;10.174;2022-09-06T13:51:49;21.80;54.00
3298;DHT22;1661;53.572;10.174;2022-09-06T13:54:16;21.90;54.10
3298;DHT22;1661;53.572;10.174;2022-09-06T13:56:43;21.90;53.50
3298;DHT22;1661;53.572;10.174;2022-09-06T13:59:10;21.80;53.80
3298;DHT22;1661;53.572;10.174;2022-09-06T14:01:40;21.90;54.10
3298;DHT22;1661;53.572;10.174;2022-09-06T14:04:09;21.80;53.40
3298;DHT22;1661;53.572;10.174;2022-09-06T14:06:36;21.80;53.80
3298;DHT22;1661;53.572;10.174;2022-09-06T14:09:03;21.90;54.70
3298;DHT22;1661;53.572;10.174;2022-09-06T14:11:30;21.90;54.70
3298;DHT22;1661;53.572;10.174;2022-09-06T14:13:56;21.90;54.60
3298;DHT22;1661;53.572;10.174;2022-09-06T14:16:23;21.90;54.80
3298;DHT22;1661;53.572;10.174;2022-09-06T14:18:52;21.90;55.80
3298;DHT22;1661;53.572;10.174;2022-09-06T14:21:18;21.90;56.70
3298;DHT22;1661;53.572;10.174;2022-09-06T14:23:47;21.90;56.70
3298;DHT22;1661;53.572;10.174;2022-09-06T14:26:16;21.80;55.50
3298;DHT22;1661;53.572;10.174;2022-09-06T14:28:44;21.80;55.30
3298;DHT22;1661;53.572;10.174;2022-09-06T14:31:13;21.70;55.60
3298;DHT22;1661;53.572;10.174;2022-09-06T14:33:41;21.70;55.60
3298;DHT22;1661;53.572;10.174;2022-09-06T14:36:11;21.70;55.20
3298;DHT22;1661;53.572;10.174;2022-09-06T14:38:39;21.60;54.90
3298;DHT22;1661;53.572;10.174;2022-09-06T14:41:07;21.50;55.40
3298;DHT22;1661;53.572;10.174;2022-09-06T14:43:34;21.50;55.00
3298;DHT22;1661;53.572;10.174;2022-09-06T14:46:03;21.50;55.10
3298;DHT22;1661;53.572;10.174;2022-09-06T14:48:30;21.50;55.20
3298;DHT22;1661;53.572;10.174;2022-09-06T14:50:57;21.50;55.50
3298;DHT22;1661;53.572;10.174;2022-09-06T14:53:25;21.50;55.30
3298;DHT22;1661;53.572;10.174;2022-09-06T14:55:52;21.50;55.40
3298;DHT22;1661;53.572;10.174;2022-09-06T14:58:26;21.50;55.10
3298;DHT22;1661;53.572;10.174;2022-09-06T15:00:52;21.50;55.00
3298;DHT22;1661;53.572;10.174;2022-09-06T15:03:19;21.60;54.90
3298;DHT22;1661;53.572;10.174;2022-09-06T15:05:46;21.50;54.90
3298;DHT22;1661;53.572;10.174;2022-09-06T15:08:13;21.50;55.10
3298;DHT22;1661;53.572;10.174;2022-09-06T15:10:51;21.50;54.90
3298;DHT22;1661;53.572;10.174;2022-09-06T15:13:18;21.60;54.80
3298;DHT22;1661;53.572;10.174;2022-09-06T15:15:45;21.60;55.00
3298;DHT22;1661;53.572;10.174;2022-09-06T15:18:13;21.70;55.00
3298;DHT22;1661;53.572;10.174;2022-09-06T15:20:41;21.80;54.70
3298;DHT22;1661;53.572;10.174;2022-09-06T15:23:07;21.90;54.70
3298;DHT22;1661;53.572;10.174;2022-09-06T15:25:34;21.90;54.50
3298;DHT22;1661;53.572;10.174;2022-09-06T15:28:03;22.00;54.50
3298;DHT22;1661;53.572;10.174;2022-09-06T15:30:30;22.00;54.30
3298;DHT22;1661;53.572;10.174;2022-09-06T15:32:56;22.00;53.90
3298;DHT22;1661;53.572;10.174;2022-09-06T15:35:24;22.00;54.30
3298;DHT22;1661;53.572;10.174;2022-09-06T15:37:50;22.10;54.40
3298;DHT22;1661;53.572;10.174;2022-09-06T15:40:17;22.10;54.50
3298;DHT22;1661;53.572;10.174;2022-09-06T15:42:48;22.20;54.40
3298;DHT22;1661;53.572;10.174;2022-09-06T15:45:17;22.20;54.50
3298;DHT22;1661;53.572;10.174;2022-09-06T15:47:43;22.30;54.50
3298;DHT22;1661;53.572;10.174;2022-09-06T15:50:10;22.30;53.80
3298;DHT22;1661;53.572;10.174;2022-09-06T15:52:37;22.30;53.40
3298;DHT22;1661;53.572;10.174;2022-09-06T15:55:04;22.30;53.40
3298;DHT22;1661;53.572;10.174;2022-09-06T15:57:49;22.30;53.80
3298;DHT22;1661;53.572;10.174;2022-09-06T16:00:18;22.40;54.20
3298;DHT22;1661;53.572;10.174;2022-09-06T16:02:46;22.40;54.00
3298;DHT22;1661;53.572;10.174;2022-09-06T16:05:13;22.50;53.50
3298;DHT22;1661;53.572;10.174;2022-09-06T16:07:40;22.50;53.00
3298;DHT22;1661;53.572;10.174;2022-09-06T16:10:09;22.50;53.00
3298;DHT22;1661;53.572;10.174;2022-09-06T16:12:36;22.50;52.80
3298;DHT22;1661;53.572;10.174;2022-09-06T16:15:04;22.40;53.00
3298;DHT22;1661;53.572;10.174;2022-09-06T16:17:32;22.40;53.20